Impacts TAF Board
For situational awareness. Not to be used for flight planning purposes.
IDs:

KANB - Anniston Metro, AL, US

Issued at 1120 UTC 15 Oct 2018
Updated at 1536 UTC 15 Oct 2018
Potential Impact None Slight Moderate High
Time<<16/04Z 16/05Z 16/06Z 16/07Z 16/08Z 16/09Z 16/10Z 16/11Z 16/12Z 16/13Z 16/14Z 16/15Z 16/16Z>>
Type PRVL PRVL PRVL PRVL PRVL PRVL
  [PRB30]  
PRVL
  [PRB30]  
PRVL
  [PRB30]  
VIS >6 >6 >6 >6 4 4
  [4]  
4
  [4]  
4
  [4]  
CIG 100 100 100 100 15 15
  [15]  
15
  [15]  
15
  [15]  
Cover BKN BKN BKN BKN OVC OVC
  [OVC]  
OVC
  [OVC]  
OVC
  [OVC]  
FltCat VFR VFR VFR VFR MVFR MVFR
  [MVFR]  
MVFR
  [MVFR]  
MVFR
  [MVFR]  
WX -- -- -- -- BR BR
  [-RA]  
BR
  [-RA]  
BR
  [-RA]  
WDir VRB VRB VRB VRB 360 360
[360]
360
[360]
360
[360]
WSpd 2 2 2 2 4 4
  [4]  
4
  [4]  
4
  [4]  
WGst -- -- -- -- -- --
  [--]  
--
  [--]  
--
  [--]  
Raw TAF
KANB 151120Z 1512/1612 VRB03KT P6SM SCT120
  FM151600 23006KT P6SM BKN050
  FM160000 VRB02KT P6SM BKN100
  FM160800 36004KT 4SM BR OVC015
  PROB30 1609/1612 4SM -RA


METAR Board
Radar Display
Forecast Discussion
For situational awareness. Not to be used for flight planning purposes.